Saxe, Virginia
Current Conditions -  °F | °C
As of 6:35 AM on Friday 31 Oct 2014 (Local Time) from KCXE Reporting Station
Clear Clear  
Wind Chill: 39°   Ceiling: Unl
Heat Index: 42°   Visibility: 10mi
Dew Point: 38°   Wind: 5mph
Humidity: 86%   Direction: 350°N
Pressure: 29.97"   Gusts: NA
Location:  36.93°N, 78.66°W
Report Text: KCXE 311035Z AUTO 35004KT 10SM CLR 06/03 A2997 RMK AO1 T00560034
Loading
Personal Weather Stations






























Interactive Weather Map
Tropical Storm Tracking
New forecast layout! Learn more

10-Day Weather Forecast

Advertisements
Track Severe Weather on mobile